Littleport, United Kingdom
Current Conditions -  °F | °C
As of 8:28 PM on Monday 22 Dec 2014 (Local Time) from EGUN Reporting Station
Overcast Overcast  
Wind Chill: 52°   Ceiling: 3100
Heat Index: 52°   Visibility: 6mi
Dew Point: 45°   Wind: 18mph
Humidity: 76%   Direction: 240°WSW
Pressure: 29.95"   Gusts: 28mph
Location:  52.46°N, 0.31°E
Report Text: EGUN 222028Z AUTO 24016G24KT 9999 FEW025 OVC031 11/07 A2995 RMK AO2
Loading
Personal Weather Stations






























Interactive Weather Map New forecast layout! Learn more

10-Day Weather Forecast

Advertisements
Track Severe Weather on mobile